Time;durP1;ratioP1;P1;durP2;ratioP2;P2;SDS_P1;SDS_P2;PMS_P1;PMS_P2;Temp;Humidity;BMP_temperature;BMP_pressure;BME280_temperature;BME280_humidity;BME280_pressure;Samples;Min_cycle;Max_cycle;Signal;HPM_P1;HPM_P2
2022/01/07 00:00:27;;;;;;;14.43;5.10;;;4.40;99.90;;;;;;5118346;27;20035;-70
2022/01/07 00:02:55;;;;;;;12.75;5.07;;;4.40;99.90;;;;;;5119212;27;20051;-70
2022/01/07 00:05:22;;;;;;;11.38;4.05;;;4.50;99.90;;;;;;5116226;27;20035;-70
2022/01/07 00:07:48;;;;;;;12.98;4.70;;;4.50;99.90;;;;;;5101932;27;20165;-70
2022/01/07 00:10:17;;;;;;;12.63;4.88;;;4.50;99.90;;;;;;5107457;28;20126;-70
2022/01/07 00:12:43;;;;;;;18.00;5.80;;;4.50;99.90;;;;;;5102230;27;20403;-69
2022/01/07 00:15:10;;;;;;;14.73;5.30;;;4.40;99.90;;;;;;5127799;27;20031;-70
2022/01/07 00:17:36;;;;;;;15.05;5.10;;;4.50;99.90;;;;;;5119308;27;20042;-70
2022/01/07 00:20:10;;;;;;;14.93;4.60;;;4.50;99.90;;;;;;5118545;27;20487;-70
2022/01/07 00:22:41;;;;;;;12.55;4.82;;;4.50;99.90;;;;;;5096632;28;20050;-70
2022/01/07 00:25:09;;;;;;;12.15;5.05;;;4.50;99.90;;;;;;5102979;27;20046;-69
2022/01/07 00:27:35;;;;;;;14.70;4.68;;;4.50;99.90;;;;;;5134612;27;20031;-70
2022/01/07 00:30:01;;;;;;;14.77;4.03;;;4.40;99.90;;;;;;5119141;27;20039;-69
2022/01/07 00:32:26;;;;;;;13.10;4.38;;;4.50;99.90;;;;;;5101017;27;20447;-69
2022/01/07 00:34:52;;;;;;;13.75;5.10;;;4.50;99.90;;;;;;5119036;27;20043;-69
2022/01/07 00:37:18;;;;;;;15.65;4.43;;;4.50;99.90;;;;;;5118050;27;20494;-70
2022/01/07 00:39:45;;;;;;;12.75;3.58;;;4.50;99.90;;;;;;5100919;27;20073;-69
2022/01/07 00:42:11;;;;;;;11.23;4.00;;;4.50;99.90;;;;;;5117738;27;20062;-69
2022/01/07 00:44:37;;;;;;;11.90;4.45;;;4.50;99.90;;;;;;5119121;27;20514;-70
2022/01/07 00:47:04;;;;;;;12.57;4.20;;;4.40;99.90;;;;;;5118119;27;20038;-70
2022/01/07 00:49:29;;;;;;;11.77;4.03;;;4.50;99.90;;;;;;5119100;27;20391;-70
2022/01/07 00:51:56;;;;;;;10.57;3.65;;;4.50;99.90;;;;;;5100674;27;20035;-69
2022/01/07 00:54:22;;;;;;;11.95;4.32;;;4.50;99.90;;;;;;5119645;27;20043;-70
2022/01/07 00:56:47;;;;;;;9.50;3.03;;;4.50;99.90;;;;;;5123529;27;20039;-70
2022/01/07 00:59:13;;;;;;;12.18;3.20;;;4.40;99.90;;;;;;5081262;28;20088;-70
2022/01/07 01:01:39;;;;;;;10.57;3.60;;;4.40;99.90;;;;;;5100126;28;20069;-70
2022/01/07 01:04:05;;;;;;;8.70;3.40;;;4.40;99.90;;;;;;5115330;28;20403;-70
2022/01/07 01:06:31;;;;;;;8.32;4.22;;;4.30;99.90;;;;;;5134157;27;20039;-70
2022/01/07 01:08:56;;;;;;;9.57;3.38;;;4.30;99.90;;;;;;5118496;27;20043;-70
2022/01/07 01:11:22;;;;;;;9.05;3.30;;;4.30;99.90;;;;;;5104468;28;20071;-70
2022/01/07 01:13:48;;;;;;;9.73;2.38;;;4.30;99.90;;;;;;5098114;28;20468;-70
2022/01/07 01:16:13;;;;;;;10.40;3.10;;;4.20;99.90;;;;;;5081013;28;20047;-70
2022/01/07 01:18:39;;;;;;;7.80;2.40;;;4.20;99.90;;;;;;5080873;28;20395;-70
2022/01/07 01:21:05;;;;;;;6.70;2.63;;;4.10;99.90;;;;;;5090544;27;20122;-70
2022/01/07 01:23:30;;;;;;;11.90;3.50;;;4.10;99.90;;;;;;5118095;27;20131;-70
2022/01/07 01:25:56;;;;;;;8.77;3.38;;;4.10;99.90;;;;;;5109275;28;20408;-70
2022/01/07 01:28:21;;;;;;;11.02;4.13;;;4.10;99.90;;;;;;5097567;28;20097;-70
2022/01/07 01:30:47;;;;;;;9.13;3.97;;;4.00;99.90;;;;;;5103791;27;20068;-70
2022/01/07 01:33:13;;;;;;;8.88;3.42;;;4.00;99.90;;;;;;5114230;28;20510;-70
2022/01/07 01:35:41;;;;;;;12.45;5.20;;;4.00;99.90;;;;;;5096675;28;20067;-70
2022/01/07 01:38:07;;;;;;;12.60;4.13;;;3.90;99.90;;;;;;5114319;28;20039;-70
2022/01/07 01:40:33;;;;;;;12.15;4.68;;;3.90;99.90;;;;;;5096550;28;20035;-70
2022/01/07 01:43:01;;;;;;;11.02;4.32;;;3.90;99.90;;;;;;5114514;28;20092;-70
2022/01/07 01:45:27;;;;;;;12.93;4.07;;;3.80;99.90;;;;;;5095126;28;20522;-70
2022/01/07 01:47:53;;;;;;;11.98;4.78;;;3.80;99.90;;;;;;5114113;28;20043;-70
2022/01/07 01:50:19;;;;;;;10.82;4.53;;;3.80;99.90;;;;;;5096330;28;20067;-70
2022/01/07 01:52:48;;;;;;;11.63;4.30;;;3.80;99.90;;;;;;5095108;28;20123;-70
2022/01/07 01:55:15;;;;;;;11.18;4.45;;;3.80;99.90;;;;;;5114332;28;20035;-70
2022/01/07 01:57:41;;;;;;;13.70;4.38;;;3.80;99.90;;;;;;5113074;28;20050;-70
2022/01/07 02:00:09;;;;;;;9.00;3.97;;;3.80;99.90;;;;;;5097010;28;20036;-70
2022/01/07 02:02:34;;;;;;;8.48;3.72;;;3.80;99.90;;;;;;5096252;28;20156;-70
2022/01/07 02:05:00;;;;;;;7.07;3.30;;;3.80;99.90;;;;;;5096898;28;20067;-70
2022/01/07 02:07:27;;;;;;;10.52;4.18;;;3.80;99.90;;;;;;5112720;28;20050;-70
2022/01/07 02:09:53;;;;;;;11.07;4.75;;;3.80;99.90;;;;;;5112471;28;20039;-70
2022/01/07 02:12:19;;;;;;;10.43;4.85;;;3.80;99.90;;;;;;5113666;28;20130;-70
2022/01/07 02:14:56;;;;;;;11.93;4.32;;;3.90;99.90;;;;;;5111586;28;20122;-70
2022/01/07 02:17:23;;;;;;;8.00;3.75;;;3.80;99.90;;;;;;5095289;28;20500;-70
2022/01/07 02:19:49;;;;;;;9.52;3.88;;;3.80;99.90;;;;;;5112800;28;20394;-70
2022/01/07 02:22:17;;;;;;;9.77;5.05;;;3.80;99.90;;;;;;5096861;28;20429;-70
2022/01/07 02:24:47;;;;;;;8.32;2.92;;;3.70;99.90;;;;;;5112479;28;20027;-70
2022/01/07 02:27:14;;;;;;;11.32;5.28;;;3.70;99.90;;;;;;5112734;28;20092;-70
2022/01/07 02:29:39;;;;;;;13.25;4.57;;;3.60;99.90;;;;;;5112376;28;20106;-70
2022/01/07 02:32:06;;;;;;;9.73;4.05;;;3.60;99.90;;;;;;5095285;28;20543;-70
2022/01/07 02:34:32;;;;;;;13.48;5.22;;;3.70;99.90;;;;;;5112371;28;20052;-70
2022/01/07 02:36:57;;;;;;;9.32;4.57;;;3.70;99.90;;;;;;5095404;28;20446;-70
2022/01/07 02:39:23;;;;;;;9.98;4.35;;;3.60;99.90;;;;;;5113457;28;20070;-70
2022/01/07 02:41:48;;;;;;;8.63;3.90;;;3.60;99.90;;;;;;5096230;28;20114;-70
2022/01/07 02:44:14;;;;;;;11.57;5.32;;;3.60;99.90;;;;;;5094443;28;20118;-70
2022/01/07 02:46:41;;;;;;;8.57;4.15;;;3.60;99.90;;;;;;5096076;28;20411;-70
2022/01/07 02:49:08;;;;;;;9.77;4.68;;;3.60;99.90;;;;;;5095070;28;20036;-70
2022/01/07 02:51:34;;;;;;;12.70;6.53;;;3.50;99.90;;;;;;5096319;28;20400;-70
2022/01/07 02:53:59;;;;;;;10.20;5.18;;;3.50;99.90;;;;;;5111986;28;20032;-70
2022/01/07 02:56:25;;;;;;;12.32;5.60;;;3.50;99.90;;;;;;5113001;28;20449;-70
2022/01/07 02:58:51;;;;;;;12.15;5.97;;;3.50;99.90;;;;;;5109360;28;20044;-70
2022/01/07 03:01:16;;;;;;;9.95;5.18;;;3.50;99.90;;;;;;5095757;28;20043;-70
2022/01/07 03:03:42;;;;;;;12.75;5.53;;;3.40;99.90;;;;;;5111362;28;20344;-70
2022/01/07 03:06:07;;;;;;;11.98;5.20;;;3.50;99.90;;;;;;5095612;28;20035;-70
2022/01/07 03:08:33;;;;;;;11.38;4.68;;;3.50;99.90;;;;;;5110683;28;20035;-70
2022/01/07 03:10:58;;;;;;;12.88;6.10;;;3.60;99.90;;;;;;5111833;28;20039;-70
2022/01/07 03:13:24;;;;;;;10.82;4.57;;;3.60;99.90;;;;;;5110510;28;20039;-70
2022/01/07 03:15:49;;;;;;;7.82;4.60;;;3.60;99.90;;;;;;5095714;28;20088;-70
2022/01/07 03:18:15;;;;;;;7.88;4.78;;;3.70;99.90;;;;;;5111680;28;20038;-70
2022/01/07 03:20:42;;;;;;;14.18;6.55;;;3.60;99.90;;;;;;5095636;28;20040;-70
2022/01/07 03:23:10;;;;;;;8.70;4.30;;;3.50;99.90;;;;;;5111952;28;20047;-70
2022/01/07 03:25:35;;;;;;;10.05;4.13;;;3.60;99.90;;;;;;5112616;28;20052;-70
2022/01/07 03:28:01;;;;;;;11.23;5.90;;;3.60;99.90;;;;;;5111407;28;20223;-70
2022/01/07 03:30:27;;;;;;;12.32;6.20;;;3.70;99.90;;;;;;5095404;28;20054;-70
2022/01/07 03:32:53;;;;;;;10.57;4.70;;;3.60;99.90;;;;;;5113544;28;20040;-70
2022/01/07 03:35:18;;;;;;;9.25;4.90;;;3.70;99.90;;;;;;5116100;28;20045;-70
2022/01/07 03:37:45;;;;;;;6.82;3.55;;;3.60;99.90;;;;;;5097776;28;20038;-70
2022/01/07 03:40:12;;;;;;;12.20;5.65;;;3.70;99.90;;;;;;5115897;28;20039;-70
2022/01/07 03:42:38;;;;;;;11.68;6.30;;;3.60;99.90;;;;;;5083320;28;20092;-70
2022/01/07 03:45:05;;;;;;;11.02;5.22;;;3.70;99.90;;;;;;5116378;28;20035;-70
2022/01/07 03:47:31;;;;;;;9.48;5.85;;;3.60;99.90;;;;;;5122694;28;20070;-70
2022/01/07 03:49:57;;;;;;;10.00;5.15;;;3.70;99.90;;;;;;5118096;28;20071;-70
2022/01/07 03:52:23;;;;;;;10.50;5.03;;;3.70;99.90;;;;;;5095514;28;20036;-70
2022/01/07 03:54:50;;;;;;;9.13;5.15;;;3.70;99.90;;;;;;5101665;28;20491;-70
2022/01/07 03:57:16;;;;;;;7.55;3.92;;;3.80;99.90;;;;;;5114612;28;20394;-70
2022/01/07 03:59:41;;;;;;;10.90;6.70;;;3.70;99.90;;;;;;5098220;28;20046;-70
2022/01/07 04:02:07;;;;;;;9.13;5.43;;;3.70;99.90;;;;;;5098412;28;20503;-70
2022/01/07 04:04:33;;;;;;;11.75;6.18;;;3.70;99.90;;;;;;5080325;28;20130;-70
2022/01/07 04:06:58;;;;;;;7.50;3.47;;;3.70;99.90;;;;;;5078440;28;20074;-70
2022/01/07 04:09:24;;;;;;;8.20;4.75;;;3.70;99.90;;;;;;5111034;28;20130;-70
2022/01/07 04:11:49;;;;;;;9.65;5.50;;;3.80;99.90;;;;;;5115502;28;20039;-70
2022/01/07 04:14:15;;;;;;;11.15;5.80;;;3.70;99.90;;;;;;5113508;28;20027;-70
2022/01/07 04:16:40;;;;;;;9.48;5.35;;;3.90;99.90;;;;;;5114559;28;20088;-70
2022/01/07 04:19:06;;;;;;;8.55;4.47;;;3.80;99.90;;;;;;5101338;28;20031;-70
2022/01/07 04:21:31;;;;;;;7.65;3.90;;;3.80;99.90;;;;;;5096061;28;20039;-70
2022/01/07 04:23:57;;;;;;;9.77;5.30;;;3.80;99.90;;;;;;5115706;28;20487;-70
2022/01/07 04:26:22;;;;;;;10.25;5.07;;;3.80;99.90;;;;;;5098650;28;20125;-70
2022/01/07 04:28:48;;;;;;;10.73;5.63;;;3.80;99.90;;;;;;5095192;28;20039;-70
2022/01/07 04:31:13;;;;;;;9.25;5.60;;;3.70;99.90;;;;;;5077995;28;20147;-70
2022/01/07 04:33:39;;;;;;;10.80;5.10;;;3.80;99.90;;;;;;5094656;28;20130;-70
2022/01/07 04:36:05;;;;;;;6.00;2.95;;;3.70;99.90;;;;;;5094923;28;20214;-70
2022/01/07 04:38:30;;;;;;;10.25;4.63;;;3.80;99.90;;;;;;5110791;28;20040;-70
2022/01/07 04:40:56;;;;;;;9.88;5.35;;;3.70;99.90;;;;;;5117442;27;20035;-70
2022/01/07 04:43:21;;;;;;;9.23;4.55;;;3.80;99.90;;;;;;5087561;28;20388;-70
2022/01/07 04:45:47;;;;;;;8.85;4.78;;;3.90;99.90;;;;;;5118814;27;20039;-70
2022/01/07 04:48:13;;;;;;;9.07;4.70;;;3.90;99.90;;;;;;5096109;28;20094;-70
2022/01/07 04:50:39;;;;;;;9.63;4.78;;;3.90;99.90;;;;;;5098259;28;20077;-70
2022/01/07 04:53:05;;;;;;;10.63;5.30;;;3.80;99.90;;;;;;5108558;27;20039;-70
2022/01/07 04:55:37;;;;;;;8.07;4.57;;;3.90;99.90;;;;;;5101626;27;20031;-70
2022/01/07 04:58:05;;;;;;;9.75;4.75;;;3.90;99.90;;;;;;5101425;27;20070;-70
2022/01/07 05:00:30;;;;;;;10.20;5.55;;;3.80;99.90;;;;;;5101689;27;20386;-70
2022/01/07 05:02:56;;;;;;;8.30;4.65;;;3.80;99.90;;;;;;5117628;27;20043;-70
2022/01/07 05:05:21;;;;;;;8.13;4.47;;;3.80;99.90;;;;;;5118728;27;20042;-70
2022/01/07 05:07:47;;;;;;;9.80;5.32;;;3.90;99.90;;;;;;5101385;28;20544;-70
2022/01/07 05:10:14;;;;;;;8.23;4.38;;;3.90;99.90;;;;;;5081109;28;20067;-70
2022/01/07 05:12:42;;;;;;;8.77;3.60;;;3.90;99.90;;;;;;5112377;27;20039;-70
2022/01/07 05:15:09;;;;;;;6.82;3.47;;;3.90;99.90;;;;;;5117715;27;20466;-70
2022/01/07 05:17:35;;;;;;;10.50;5.38;;;3.90;99.90;;;;;;5116412;27;20482;-70
2022/01/07 05:20:02;;;;;;;9.60;5.15;;;3.90;99.90;;;;;;5101151;27;20039;-70
2022/01/07 05:22:28;;;;;;;6.93;3.28;;;3.90;99.90;;;;;;5100142;27;20051;-70
2022/01/07 05:24:54;;;;;;;6.75;4.22;;;4.00;99.90;;;;;;5117456;27;20170;-70
2022/01/07 05:27:20;;;;;;;7.75;4.05;;;4.00;99.90;;;;;;5103535;28;20495;-70
2022/01/07 05:29:45;;;;;;;6.72;3.45;;;4.00;99.90;;;;;;5097762;28;20480;-70
2022/01/07 05:32:11;;;;;;;6.20;3.47;;;4.00;99.90;;;;;;5108535;27;20046;-70
2022/01/07 05:34:37;;;;;;;7.90;4.40;;;4.00;99.90;;;;;;5100888;27;20055;-70
2022/01/07 05:37:03;;;;;;;6.47;3.75;;;3.90;99.90;;;;;;5116200;27;20559;-70
2022/01/07 05:39:28;;;;;;;8.40;4.57;;;4.00;99.90;;;;;;5100703;27;20039;-70
2022/01/07 05:41:54;;;;;;;5.78;3.10;;;4.00;99.90;;;;;;5116541;27;20114;-70
2022/01/07 05:44:21;;;;;;;6.30;3.40;;;4.00;99.90;;;;;;5096986;27;20060;-70
2022/01/07 05:46:47;;;;;;;8.27;4.47;;;4.00;99.90;;;;;;5134837;27;20051;-70
2022/01/07 05:49:13;;;;;;;9.75;4.97;;;4.00;99.90;;;;;;5116568;27;20187;-70
2022/01/07 05:51:38;;;;;;;10.13;3.97;;;4.00;99.90;;;;;;5117474;27;20046;-70
2022/01/07 05:54:04;;;;;;;6.00;3.33;;;4.00;99.90;;;;;;5116359;27;20451;-70
2022/01/07 05:56:31;;;;;;;8.93;4.53;;;4.10;99.90;;;;;;5117476;27;20035;-70
2022/01/07 05:58:56;;;;;;;8.38;4.30;;;4.00;99.90;;;;;;5117426;27;20050;-70
2022/01/07 06:01:22;;;;;;;6.47;3.85;;;4.00;99.90;;;;;;5100096;27;20035;-70
2022/01/07 06:03:48;;;;;;;7.63;3.33;;;4.00;99.90;;;;;;5100456;27;20068;-70
2022/01/07 06:06:13;;;;;;;7.57;3.53;;;4.00;99.90;;;;;;5096273;28;20039;-70
2022/01/07 06:08:39;;;;;;;7.03;3.72;;;4.00;99.90;;;;;;5096890;28;20035;-70
2022/01/07 06:11:04;;;;;;;7.45;3.63;;;4.00;99.90;;;;;;5095932;27;20035;-70
2022/01/07 06:13:30;;;;;;;11.85;3.35;;;3.90;99.90;;;;;;5117329;27;20039;-70
2022/01/07 06:15:56;;;;;;;6.65;3.67;;;4.00;99.90;;;;;;5098252;27;20043;-70
2022/01/07 06:18:22;;;;;;;6.22;3.38;;;4.00;99.90;;;;;;5100127;27;20031;-70
2022/01/07 06:20:47;;;;;;;6.20;3.03;;;4.00;99.90;;;;;;5115840;27;20035;-70
2022/01/07 06:23:13;;;;;;;6.93;3.88;;;4.00;99.90;;;;;;5115458;27;20035;-70
2022/01/07 06:25:39;;;;;;;8.27;4.68;;;4.00;99.90;;;;;;5115617;27;20051;-70
2022/01/07 06:28:04;;;;;;;6.53;3.08;;;4.00;99.90;;;;;;5110561;27;20038;-70
2022/01/07 06:30:30;;;;;;;7.65;3.95;;;4.00;99.90;;;;;;5100347;27;20036;-70
2022/01/07 06:32:56;;;;;;;8.75;4.63;;;4.00;99.90;;;;;;5093197;27;20054;-70
2022/01/07 06:35:21;;;;;;;7.53;3.75;;;4.00;99.90;;;;;;5088806;27;20054;-70
2022/01/07 06:37:47;;;;;;;9.65;4.68;;;4.00;99.90;;;;;;5090627;27;21400;-70
2022/01/07 06:40:13;;;;;;;6.18;3.10;;;4.00;99.90;;;;;;5076274;27;20410;-70
2022/01/07 06:42:39;;;;;;;7.85;3.28;;;4.00;99.90;;;;;;5089250;27;20146;-70
2022/01/07 06:45:06;;;;;;;7.30;3.53;;;4.10;99.90;;;;;;5076838;27;20455;-70
2022/01/07 06:47:32;;;;;;;8.98;5.00;;;4.00;99.90;;;;;;5073654;27;20453;-70
2022/01/07 06:49:58;;;;;;;6.88;3.80;;;4.10;99.90;;;;;;5089171;27;20035;-70
2022/01/07 06:52:24;;;;;;;9.40;4.43;;;4.10;99.90;;;;;;5087886;27;20099;-70
2022/01/07 06:54:49;;;;;;;8.57;4.65;;;4.10;99.90;;;;;;5081844;27;20039;-70
2022/01/07 06:57:15;;;;;;;6.60;3.72;;;4.10;99.90;;;;;;5088555;27;20131;-70
2022/01/07 06:59:41;;;;;;;7.40;3.38;;;4.10;99.90;;;;;;5070986;27;20558;-70
2022/01/07 07:02:07;;;;;;;7.28;4.50;;;4.20;99.90;;;;;;5088399;27;20673;-70
2022/01/07 07:04:33;;;;;;;11.27;4.85;;;4.20;99.90;;;;;;5091078;27;20186;-70
2022/01/07 07:06:58;;;;;;;7.43;4.38;;;4.10;99.90;;;;;;5088712;27;20518;-70
2022/01/07 07:09:24;;;;;;;7.25;4.18;;;4.10;99.90;;;;;;5089154;27;20046;-70
2022/01/07 07:11:49;;;;;;;9.18;4.43;;;4.10;99.90;;;;;;5088062;27;20376;-70
2022/01/07 07:14:16;;;;;;;9.13;4.00;;;4.10;99.90;;;;;;5088830;27;20495;-70
2022/01/07 07:16:43;;;;;;;9.88;5.10;;;4.20;99.90;;;;;;5092574;27;20136;-70
2022/01/07 07:19:09;;;;;;;9.27;4.38;;;4.10;99.90;;;;;;5075881;27;20031;-70
2022/01/07 07:21:35;;;;;;;9.38;4.28;;;4.20;99.90;;;;;;5077264;27;20053;-70
2022/01/07 07:24:02;;;;;;;7.20;4.22;;;4.30;99.90;;;;;;5075176;27;20043;-70
2022/01/07 07:26:27;;;;;;;9.38;5.18;;;4.20;99.90;;;;;;5075270;28;20054;-70
2022/01/07 07:28:53;;;;;;;8.73;4.78;;;4.20;99.90;;;;;;5091466;28;20047;-70
2022/01/07 07:31:19;;;;;;;7.43;4.30;;;4.20;99.90;;;;;;5099834;28;20031;-70
2022/01/07 07:36:27;;;;;;;9.68;5.72;;;4.30;99.90;;;;;;5115076;28;20051;-70
2022/01/07 07:38:53;;;;;;;;;;;4.20;99.90;;;;;;5115172;28;20035;-70
2022/01/07 07:41:19;;;;;;;6.03;3.33;;;4.30;99.90;;;;;;5113529;28;19926;-70
2022/01/07 07:43:47;;;;;;;6.32;4.05;;;4.30;99.90;;;;;;5094092;28;20035;-70
2022/01/07 07:46:14;;;;;;;8.85;5.80;;;4.30;99.90;;;;;;5105058;28;20050;-70
2022/01/07 07:48:40;;;;;;;9.45;4.85;;;4.30;99.90;;;;;;5088767;28;20046;-70
2022/01/07 07:51:05;;;;;;;7.72;3.83;;;4.30;99.90;;;;;;5097297;28;20067;-70
2022/01/07 07:53:31;;;;;;;10.70;5.90;;;4.50;99.90;;;;;;5097584;28;20488;-70
2022/01/07 07:55:57;;;;;;;10.30;5.40;;;4.30;99.90;;;;;;5095677;28;20035;-70
2022/01/07 07:58:24;;;;;;;10.10;6.28;;;4.40;99.90;;;;;;5088050;28;20095;-70
2022/01/07 08:00:50;;;;;;;10.70;6.35;;;4.40;99.90;;;;;;5103868;28;20039;-70
2022/01/07 08:03:16;;;;;;;15.65;8.20;;;4.40;99.90;;;;;;5107000;28;20118;-70
2022/01/07 08:05:42;;;;;;;12.93;7.20;;;4.40;99.90;;;;;;5097590;28;20403;-70
2022/01/07 08:08:08;;;;;;;14.73;7.20;;;4.50;99.90;;;;;;5097751;28;20042;-70
2022/01/07 08:10:33;;;;;;;12.88;7.28;;;4.40;99.90;;;;;;5097384;28;20046;-70
2022/01/07 08:18:18;;;;;;;10.23;5.82;;;4.50;99.90;;;;;;5110071;27;20043;-70
2022/01/07 08:20:43;;;;;;;11.65;7.10;;;4.50;99.90;;;;;;5109622;27;20035;-70
2022/01/07 08:23:10;;;;;;;12.77;8.35;;;4.50;99.90;;;;;;5093476;27;20552;-70
2022/01/07 08:25:36;;;;;;;11.38;7.20;;;4.50;99.90;;;;;;5091584;27;20486;-70
2022/01/07 08:28:04;;;;;;;11.65;7.07;;;4.60;99.90;;;;;;5107934;27;20061;-70
2022/01/07 08:30:36;;;;;;;7.30;5.10;;;4.60;99.90;;;;;;5112604;27;20412;-70
2022/01/07 08:35:49;;;;;;;15.57;9.00;;;4.70;99.90;;;;;;5116525;27;20543;-70
2022/01/07 08:38:15;;;;;;;14.00;7.95;;;4.70;99.90;;;;;;5092936;27;20113;-70
2022/01/07 08:40:41;;;;;;;13.30;8.77;;;4.70;99.90;;;;;;5108264;27;20028;-70
2022/01/07 08:43:08;;;;;;;10.82;5.47;;;4.80;99.90;;;;;;5110481;27;20119;-70
2022/01/07 08:45:34;;;;;;;14.65;8.20;;;4.80;99.90;;;;;;5093990;27;20109;-70
2022/01/07 08:48:00;;;;;;;13.13;7.75;;;4.90;99.90;;;;;;5109232;27;20399;-70
2022/01/07 08:50:26;;;;;;;17.60;10.15;;;4.90;99.90;;;;;;5109961;27;20053;-70
2022/01/07 08:52:52;;;;;;;13.95;9.40;;;4.80;99.90;;;;;;5107503;27;20488;-70
2022/01/07 08:55:19;;;;;;;15.15;7.95;;;4.90;99.90;;;;;;5090914;27;21024;-70
2022/01/07 08:57:45;;;;;;;14.38;9.40;;;4.80;99.90;;;;;;5107412;27;20078;-70
2022/01/07 09:00:11;;;;;;;16.98;9.65;;;4.90;99.90;;;;;;5090819;27;20440;-70
2022/01/07 09:02:37;;;;;;;16.58;8.43;;;5.00;99.90;;;;;;5094870;27;20035;-70
2022/01/07 09:05:02;;;;;;;16.98;10.18;;;5.00;99.90;;;;;;5096634;27;20092;-70
2022/01/07 09:07:28;;;;;;;15.93;9.73;;;5.00;99.90;;;;;;5117606;27;20403;-70
2022/01/07 09:09:53;;;;;;;15.45;10.02;;;5.00;99.90;;;;;;5099139;27;20046;-70
2022/01/07 09:12:19;;;;;;;21.33;11.93;;;5.10;99.90;;;;;;5135376;27;20495;-70
2022/01/07 09:14:46;;;;;;;17.77;7.72;;;5.10;99.90;;;;;;5098722;27;20077;-70
2022/01/07 09:17:11;;;;;;;15.32;8.23;;;5.10;99.90;;;;;;5115923;27;20089;-70
2022/01/07 09:19:37;;;;;;;13.50;9.63;;;5.20;99.90;;;;;;5116088;27;20121;-70
2022/01/07 09:22:02;;;;;;;13.52;9.02;;;5.20;99.90;;;;;;5117583;27;20550;-70
2022/01/07 09:24:29;;;;;;;15.60;9.43;;;5.30;99.90;;;;;;5098313;27;20046;-70
2022/01/07 09:26:56;;;;;;;13.68;8.25;;;5.30;99.90;;;;;;5114836;27;20392;-70
2022/01/07 09:29:23;;;;;;;14.55;10.15;;;5.30;99.90;;;;;;5098412;28;20559;-70
2022/01/07 09:31:50;;;;;;;19.88;11.60;;;5.30;99.90;;;;;;5097550;27;20113;-70
2022/01/07 09:34:15;;;;;;;19.02;10.77;;;5.30;99.90;;;;;;5099289;27;20062;-70
2022/01/07 09:36:41;;;;;;;16.25;8.55;;;5.40;99.90;;;;;;5116128;27;20039;-70
2022/01/07 09:39:06;;;;;;;19.95;10.90;;;5.40;99.90;;;;;;5116956;27;20396;-70
2022/01/07 09:41:32;;;;;;;16.65;10.80;;;5.40;99.90;;;;;;5114829;27;20100;-70
2022/01/07 09:43:58;;;;;;;16.15;9.57;;;5.30;99.90;;;;;;5098874;27;20051;-70
2022/01/07 09:46:24;;;;;;;20.48;11.63;;;5.50;99.90;;;;;;5115195;27;20123;-70
2022/01/07 09:48:49;;;;;;;16.55;11.13;;;5.50;99.90;;;;;;5116899;27;20121;-70
2022/01/07 09:51:15;;;;;;;20.50;12.00;;;5.40;99.90;;;;;;5112637;27;20027;-70
2022/01/07 09:53:41;;;;;;;19.67;11.90;;;5.50;99.90;;;;;;5116112;27;20494;-70
2022/01/07 09:56:07;;;;;;;16.40;9.35;;;5.50;99.90;;;;;;5112442;28;20035;-70
2022/01/07 09:58:34;;;;;;;17.13;11.98;;;5.50;99.90;;;;;;5116823;27;20062;-70
2022/01/07 10:01:05;;;;;;;20.35;13.18;;;5.50;99.90;;;;;;5091664;27;20078;-70
2022/01/07 10:03:48;;;;;;;17.17;9.68;;;5.50;99.90;;;;;;5098258;27;20447;-70
2022/01/07 10:06:22;;;;;;;13.07;7.97;;;5.50;99.90;;;;;;5099395;27;20112;-70
2022/01/07 10:09:10;;;;;;;17.52;13.82;;;5.40;99.90;;;;;;5114006;27;20049;-70
2022/01/07 10:11:36;;;;;;;15.27;9.13;;;5.40;99.90;;;;;;5099118;27;20151;-70
2022/01/07 10:14:20;;;;;;;15.02;9.52;;;5.50;99.90;;;;;;5098105;27;20035;-70
2022/01/07 10:16:54;;;;;;;15.57;6.40;;;5.60;99.90;;;;;;5116357;27;20050;-70
2022/01/07 10:19:33;;;;;;;11.90;6.22;;;5.70;99.90;;;;;;5114174;27;20478;-70
2022/01/07 10:22:11;;;;;;;8.02;3.92;;;5.50;99.90;;;;;;5098667;27;20039;-70
2022/01/07 10:24:54;;;;;;;7.30;2.33;;;5.40;99.90;;;;;;5113852;27;20047;-70
2022/01/07 10:27:20;;;;;;;4.90;2.22;;;5.50;99.90;;;;;;5115818;27;20043;-70
2022/01/07 10:29:46;;;;;;;6.13;1.98;;;5.50;99.90;;;;;;5094996;27;20061;-70
2022/01/07 10:32:28;;;;;;;5.53;2.15;;;5.50;99.90;;;;;;5091802;27;20039;-70
2022/01/07 10:35:07;;;;;;;3.45;1.75;;;5.60;99.90;;;;;;5113378;27;20047;-70
2022/01/07 10:37:34;;;;;;;7.97;2.75;;;5.60;99.90;;;;;;5113752;28;20032;-70
2022/01/07 10:40:00;;;;;;;9.13;2.53;;;5.70;99.90;;;;;;5115635;27;20042;-70
2022/01/07 10:42:27;;;;;;;5.88;2.13;;;5.80;99.90;;;;;;5096613;27;20031;-70
2022/01/07 10:45:05;;;;;;;4.75;2.53;;;5.80;99.90;;;;;;5115555;27;20035;-70
2022/01/07 10:47:30;;;;;;;5.22;2.10;;;5.60;99.90;;;;;;5096724;27;20039;-70
2022/01/07 10:50:18;;;;;;;4.35;1.98;;;5.70;99.90;;;;;;5098513;28;20042;-70
2022/01/07 10:52:44;;;;;;;4.85;1.70;;;5.80;99.90;;;;;;5094464;27;20043;-70
2022/01/07 10:55:15;;;;;;;6.47;2.30;;;5.80;99.90;;;;;;5097462;27;20035;-70
2022/01/07 10:57:46;;;;;;;3.38;1.55;;;5.60;99.90;;;;;;5112163;27;20429;-70
2022/01/07 11:00:14;;;;;;;6.18;2.30;;;5.70;99.90;;;;;;5098134;27;20039;-70
2022/01/07 11:02:40;;;;;;;6.43;2.85;;;5.60;99.90;;;;;;5114385;27;20039;-70
2022/01/07 11:05:07;;;;;;;7.63;3.38;;;5.70;99.90;;;;;;5114920;27;20045;-70
2022/01/07 11:07:33;;;;;;;5.03;2.35;;;5.70;99.90;;;;;;5113948;27;20043;-70
2022/01/07 11:09:59;;;;;;;7.35;3.03;;;5.90;99.90;;;;;;5095067;27;20043;-70
2022/01/07 11:12:27;;;;;;;7.30;3.53;;;5.80;99.90;;;;;;5098302;27;20043;-70
2022/01/07 11:14:52;;;;;;;9.52;4.32;;;5.70;99.90;;;;;;5113771;27;20043;-70
2022/01/07 11:17:21;;;;;;;5.80;3.05;;;5.60;99.90;;;;;;5115101;27;20031;-70
2022/01/07 11:19:52;;;;;;;11.88;4.82;;;5.70;99.90;;;;;;5097056;27;20043;-70
2022/01/07 11:22:19;;;;;;;13.18;5.20;;;5.70;99.90;;;;;;5114749;27;20039;-75
2022/01/07 11:24:48;;;;;;;8.18;3.90;;;5.80;99.90;;;;;;5095795;27;20047;-76
2022/01/07 11:27:22;;;;;;;9.20;4.63;;;5.80;99.90;;;;;;5093853;27;20046;-70
2022/01/07 11:29:48;;;;;;;9.77;4.80;;;5.90;99.90;;;;;;5097934;28;20122;-70
2022/01/07 11:32:26;;;;;;;10.55;5.25;;;5.80;99.90;;;;;;5095868;28;20453;-71
2022/01/07 11:35:18;;;;;;;5.72;2.88;;;5.80;99.90;;;;;;5095992;27;20074;-71
2022/01/07 11:37:47;;;;;;;9.15;4.70;;;5.80;99.90;;;;;;5114703;28;20043;-70
2022/01/07 11:40:28;;;;;;;12.65;6.47;;;5.80;99.90;;;;;;5096721;28;20491;-70
2022/01/07 11:42:56;;;;;;;13.93;6.75;;;5.60;99.90;;;;;;5114039;28;20046;-70
2022/01/07 11:45:48;;;;;;;11.00;4.75;;;5.50;99.90;;;;;;5113997;28;20043;-71
2022/01/07 11:48:22;;;;;;;10.90;5.93;;;5.70;99.90;;;;;;5094134;28;20104;-71
2022/01/07 11:51:09;;;;;;;14.35;7.53;;;5.90;99.90;;;;;;5101574;27;20042;-71
2022/01/07 11:53:41;;;;;;;11.77;5.75;;;5.90;99.90;;;;;;5116951;27;20043;-71
2022/01/07 11:56:09;;;;;;;14.63;7.80;;;6.00;99.90;;;;;;5115755;27;20046;-71
2022/01/07 11:58:42;;;;;;;15.05;7.38;;;5.90;99.90;;;;;;5118674;27;20035;-71
2022/01/07 12:01:26;;;;;;;15.43;7.47;;;5.90;99.90;;;;;;5115323;27;20057;-77
2022/01/07 12:03:53;;;;;;;16.15;8.07;;;6.00;99.90;;;;;;5132943;27;20074;-81
2022/01/07 12:06:28;;;;;;;15.50;5.72;;;6.00;99.90;;;;;;5113097;28;20043;-73
2022/01/07 12:09:02;;;;;;;14.63;6.28;;;6.00;99.90;;;;;;5098369;28;20066;-73
2022/01/07 12:11:33;;;;;;;14.73;6.88;;;6.00;99.90;;;;;;5110795;27;20509;-82
2022/01/07 12:14:00;;;;;;;11.90;7.23;;;5.90;99.90;;;;;;5116040;27;20114;-70
2022/01/07 12:16:33;;;;;;;12.77;7.38;;;6.00;99.90;;;;;;5117205;27;20579;-70
2022/01/07 12:19:36;;;;;;;13.73;7.07;;;6.00;99.90;;;;;;5112542;27;20506;-70
2022/01/07 12:22:07;;;;;;;11.38;6.65;;;6.00;99.90;;;;;;5071599;27;20135;-70
2022/01/07 12:24:33;;;;;;;11.32;7.20;;;5.90;99.90;;;;;;5118266;27;20039;-70
2022/01/07 12:27:10;;;;;;;11.27;6.32;;;6.00;99.90;;;;;;5100957;27;20543;-70
2022/01/07 12:29:37;;;;;;;10.45;6.10;;;5.90;99.90;;;;;;5102307;27;20035;-70
2022/01/07 12:32:05;;;;;;;13.10;6.85;;;5.90;99.90;;;;;;5118108;27;20046;-70
2022/01/07 12:34:49;;;;;;;12.25;5.50;;;5.80;99.90;;;;;;5130711;27;20096;-70
2022/01/07 12:37:18;;;;;;;9.95;4.43;;;5.80;99.90;;;;;;5101336;27;20035;-71
2022/01/07 12:39:47;;;;;;;13.82;4.90;;;5.50;99.90;;;;;;5128457;27;20050;-70
2022/01/07 12:42:13;;;;;;;11.05;4.00;;;5.50;99.90;;;;;;5114821;27;20066;-71
2022/01/07 12:44:52;;;;;;;7.55;3.22;;;5.70;99.90;;;;;;5090474;27;20039;-71
2022/01/07 12:47:20;;;;;;;6.97;2.45;;;5.80;99.90;;;;;;5117746;27;20035;-71
2022/01/07 12:49:46;;;;;;;7.10;2.35;;;5.80;99.90;;;;;;5101864;27;20031;-71
2022/01/07 12:52:27;;;;;;;5.45;1.50;;;5.70;99.90;;;;;;5117391;27;20179;-71
2022/01/07 12:54:57;;;;;;;7.80;2.17;;;5.80;99.90;;;;;;5117458;27;20055;-71
2022/01/07 12:57:46;;;;;;;5.85;1.73;;;5.80;99.90;;;;;;5101687;27;20035;-71
2022/01/07 13:00:27;;;;;;;5.78;1.25;;;5.80;99.90;;;;;;5100504;27;20034;-71
2022/01/07 13:02:56;;;;;;;3.17;1.00;;;5.80;99.90;;;;;;5118049;27;20399;-71